createdAt,value
2022-12-24T00:02:19.671Z,14.70
2022-12-24T00:07:22.587Z,14.60
2022-12-24T00:12:26.772Z,14.60
2022-12-24T00:17:29.654Z,14.60
2022-12-24T00:22:32.636Z,14.50
2022-12-24T00:27:36.818Z,14.50
2022-12-24T00:32:39.624Z,14.50
2022-12-24T00:37:42.484Z,14.40
2022-12-24T00:42:46.695Z,14.50
2022-12-24T00:47:49.533Z,14.50
2022-12-24T00:52:52.454Z,14.50
2022-12-24T00:57:57.377Z,14.50
2022-12-24T01:03:00.603Z,14.60
2022-12-24T01:08:03.498Z,14.50
2022-12-24T01:13:07.695Z,14.50
2022-12-24T01:18:10.599Z,14.40
2022-12-24T01:23:15.486Z,14.60
2022-12-24T01:28:20.059Z,14.50
2022-12-24T01:33:23.015Z,14.50
2022-12-24T01:38:25.890Z,14.50
2022-12-24T01:43:33.288Z,14.50
2022-12-24T01:48:41.320Z,14.50
2022-12-24T01:53:47.806Z,14.50
2022-12-24T01:58:55.167Z,14.50
2022-12-24T02:03:58.080Z,14.50
2022-12-24T02:09:00.969Z,14.50
2022-12-24T02:14:05.277Z,14.40
2022-12-24T02:19:23.256Z,14.50
2022-12-24T02:25:26.870Z,14.50
2022-12-24T02:30:34.265Z,14.50
2022-12-24T02:35:47.632Z,14.60
2022-12-24T02:40:54.465Z,14.60
2022-12-24T02:46:01.992Z,14.50
2022-12-24T02:51:07.129Z,14.50
2022-12-24T02:56:25.514Z,14.40
2022-12-24T03:01:45.686Z,14.50
2022-12-24T03:07:05.972Z,14.40
2022-12-24T03:12:13.504Z,14.40
2022-12-24T03:17:19.230Z,14.40
2022-12-24T03:22:24.972Z,14.40
2022-12-24T03:27:29.553Z,14.40
2022-12-24T03:32:34.225Z,14.30
2022-12-24T03:37:37.159Z,14.30
2022-12-24T03:42:42.143Z,14.20
2022-12-24T03:47:46.351Z,14.30
2022-12-24T03:52:49.339Z,14.20
2022-12-24T03:57:52.176Z,14.10
2022-12-24T04:02:56.504Z,14.20
2022-12-24T04:07:59.393Z,14.20
2022-12-24T04:13:02.309Z,14.20
2022-12-24T04:18:06.665Z,14.30
2022-12-24T04:23:09.502Z,14.10
2022-12-24T04:28:12.616Z,14.20
2022-12-24T04:33:16.964Z,14.20
2022-12-24T04:38:19.939Z,14.20
2022-12-24T04:43:22.824Z,14.20
2022-12-24T04:48:27.002Z,14.30
2022-12-24T04:53:29.923Z,14.20
2022-12-24T04:58:32.800Z,14.20
2022-12-24T05:03:37.074Z,14.30
2022-12-24T05:08:40.512Z,14.20
2022-12-24T05:13:47.261Z,14.20
2022-12-24T05:18:52.420Z,14.10
2022-12-24T05:24:13.209Z,14.10
2022-12-24T05:29:16.180Z,14.00
2022-12-24T05:34:20.464Z,14.00
2022-12-24T05:39:23.412Z,14.10
2022-12-24T05:44:26.314Z,14.10
2022-12-24T05:49:30.816Z,14.10
2022-12-24T05:54:33.718Z,14.10
2022-12-24T05:59:36.774Z,14.00
2022-12-24T06:04:41.209Z,13.90
2022-12-24T06:09:44.089Z,13.80
2022-12-24T06:14:46.965Z,13.90
2022-12-24T06:19:51.136Z,13.90
2022-12-24T06:24:54.007Z,13.90
2022-12-24T06:29:56.867Z,13.90
2022-12-24T06:35:01.058Z,13.80
2022-12-24T06:40:04.057Z,13.90
2022-12-24T06:45:08.749Z,13.80
2022-12-24T06:50:13.231Z,13.90
2022-12-24T06:55:16.279Z,13.90
2022-12-24T07:00:21.717Z,14.00
2022-12-24T07:05:25.937Z,13.90
2022-12-24T07:10:28.796Z,13.90
2022-12-24T07:15:31.701Z,13.90
2022-12-24T07:20:36.215Z,13.90
2022-12-24T07:25:42.724Z,14.00
2022-12-24T07:30:45.882Z,13.90
2022-12-24T07:35:55.726Z,13.90
2022-12-24T07:40:59.103Z,14.00
2022-12-24T07:46:02.483Z,14.00
2022-12-24T07:51:06.925Z,14.00
2022-12-24T07:56:12.905Z,13.90
2022-12-24T08:01:16.109Z,13.90
2022-12-24T08:06:20.339Z,13.90
2022-12-24T08:11:23.174Z,14.00
2022-12-24T08:16:26.155Z,14.00
2022-12-24T08:21:30.433Z,14.10
2022-12-24T08:26:33.660Z,14.10
2022-12-24T08:31:37.235Z,14.00
2022-12-24T08:36:41.608Z,14.00
2022-12-24T08:41:46.521Z,14.00
2022-12-24T08:46:49.389Z,14.10
2022-12-24T08:51:53.613Z,14.00
2022-12-24T08:56:56.546Z,14.10
2022-12-24T09:01:59.966Z,14.10
2022-12-24T09:07:14.624Z,14.20
2022-12-24T09:12:17.970Z,14.20
2022-12-24T09:17:24.139Z,14.10
2022-12-24T09:22:33.267Z,14.10
2022-12-24T09:27:36.434Z,14.00
2022-12-24T09:32:39.485Z,14.00
2022-12-24T09:37:55.177Z,14.20
2022-12-24T09:42:58.427Z,14.20
2022-12-24T09:48:06.525Z,14.30
2022-12-24T09:53:18.561Z,14.40
2022-12-24T09:58:27.296Z,14.30
2022-12-24T10:03:30.439Z,14.20
2022-12-24T10:08:46.502Z,14.20
2022-12-24T10:14:01.567Z,14.30
2022-12-24T10:19:15.835Z,14.10
2022-12-24T10:24:25.242Z,14.10
2022-12-24T10:29:31.061Z,14.10
2022-12-24T10:34:39.383Z,14.10
2022-12-24T10:39:45.903Z,14.10
2022-12-24T10:44:54.312Z,14.10
2022-12-24T10:50:18.173Z,14.10
2022-12-24T10:55:30.076Z,14.20
2022-12-24T11:00:42.454Z,14.20
2022-12-24T11:05:46.440Z,14.20
2022-12-24T11:10:58.919Z,14.20
2022-12-24T11:16:15.387Z,14.20
2022-12-24T11:21:24.845Z,14.40
2022-12-24T11:26:31.096Z,14.40
2022-12-24T11:31:37.336Z,14.50
2022-12-24T11:36:41.043Z,14.50
2022-12-24T11:41:45.287Z,14.50
2022-12-24T11:46:52.473Z,14.70
2022-12-24T11:52:23.778Z,14.60
2022-12-24T11:57:33.467Z,14.70
2022-12-24T12:02:39.420Z,14.80
2022-12-24T12:07:43.819Z,14.80
2022-12-24T12:12:53.898Z,14.80
2022-12-24T12:18:04.860Z,14.70
2022-12-24T12:23:15.763Z,14.90
2022-12-24T12:28:25.051Z,14.80
2022-12-24T12:33:34.738Z,14.80
2022-12-24T12:38:44.385Z,14.90
2022-12-24T12:44:39.641Z,14.90
2022-12-24T12:50:34.148Z,15.00
2022-12-24T12:55:54.273Z,14.90
2022-12-24T13:01:26.039Z,14.90
2022-12-24T13:07:05.200Z,14.90
2022-12-24T13:12:47.843Z,14.90
2022-12-24T13:18:24.360Z,14.80
2022-12-24T13:23:30.065Z,14.80
2022-12-24T13:28:35.739Z,14.80
2022-12-24T13:33:52.188Z,14.80
2022-12-24T13:38:57.238Z,14.80
2022-12-24T13:44:04.487Z,14.90
2022-12-24T13:55:24.018Z,15.00
2022-12-24T14:00:58.893Z,14.90
2022-12-24T14:06:28.209Z,14.90
2022-12-24T14:12:20.531Z,15.00
2022-12-24T14:17:42.569Z,14.80
2022-12-24T14:22:51.104Z,14.90
2022-12-24T14:28:09.367Z,14.90
2022-12-24T14:33:46.091Z,15.00
2022-12-24T14:38:49.838Z,14.80
2022-12-24T14:43:59.954Z,14.80
2022-12-24T14:49:12.606Z,14.90
2022-12-24T14:54:35.415Z,14.90
2022-12-24T14:59:50.312Z,14.80
2022-12-24T15:05:13.030Z,14.70
2022-12-24T15:10:27.662Z,14.70
2022-12-24T15:15:30.837Z,14.60
2022-12-24T15:20:35.138Z,14.60
2022-12-24T15:25:38.010Z,14.70
2022-12-24T16:04:59.423Z,14.60
2022-12-24T16:10:17.750Z,14.40
2022-12-24T16:15:21.268Z,14.50
2022-12-24T16:20:30.569Z,14.40
2022-12-24T16:25:41.909Z,14.50
2022-12-24T16:30:46.675Z,14.40
2022-12-24T16:35:53.313Z,14.30
2022-12-24T16:41:07.254Z,14.30
2022-12-24T16:46:17.463Z,14.30
2022-12-24T16:51:22.119Z,14.20
2022-12-24T16:56:24.948Z,14.20
2022-12-24T17:01:27.884Z,14.20
2022-12-24T17:06:32.145Z,14.20
2022-12-24T17:11:35.272Z,14.20
2022-12-24T17:16:38.088Z,14.10
2022-12-24T17:21:42.369Z,14.30
2022-12-24T17:26:45.350Z,14.20
2022-12-24T17:31:48.300Z,14.30
2022-12-24T17:36:52.556Z,14.20
2022-12-24T17:41:55.574Z,14.10
2022-12-24T17:46:58.489Z,14.20
2022-12-24T17:52:04.625Z,14.30
2022-12-24T17:57:07.609Z,14.30
2022-12-24T18:02:12.619Z,14.20
2022-12-24T18:07:16.968Z,14.30
2022-12-24T18:12:19.818Z,14.30
2022-12-24T18:17:22.677Z,14.20
2022-12-24T18:22:27.063Z,14.20
2022-12-24T18:27:29.916Z,14.30
2022-12-24T18:32:32.850Z,14.10
2022-12-24T18:37:37.545Z,14.10
2022-12-24T18:42:41.753Z,14.10
2022-12-24T18:47:44.770Z,14.00
2022-12-24T18:52:51.276Z,13.90
2022-12-24T18:57:54.161Z,14.00
2022-12-24T19:02:57.102Z,14.00
2022-12-24T19:08:11.041Z,14.10
2022-12-24T19:13:24.237Z,14.00
2022-12-24T19:18:27.113Z,14.00
2022-12-24T19:23:31.285Z,13.90
2022-12-24T19:28:34.859Z,13.80
2022-12-24T19:33:42.369Z,13.90
2022-12-24T19:38:47.747Z,13.90
2022-12-24T19:43:53.026Z,13.80
2022-12-24T19:48:57.961Z,13.80
2022-12-24T19:54:04.101Z,13.80
2022-12-24T19:59:07.485Z,13.80
2022-12-24T20:04:10.509Z,13.90
2022-12-24T20:09:15.199Z,13.90
2022-12-24T20:14:18.098Z,13.90
2022-12-24T20:19:21.174Z,13.90
2022-12-24T20:24:27.163Z,13.80
2022-12-24T20:29:33.667Z,13.90
2022-12-24T20:34:38.001Z,14.00
2022-12-24T20:39:44.461Z,13.90
2022-12-24T20:44:49.208Z,13.90
2022-12-24T20:49:52.176Z,13.80
2022-12-24T20:54:56.554Z,13.80
2022-12-24T21:00:00.423Z,13.80
2022-12-24T21:05:04.470Z,13.70
2022-12-24T21:10:11.423Z,13.60
2022-12-24T21:15:14.566Z,13.60
2022-12-24T21:20:20.034Z,13.70
2022-12-24T21:25:25.418Z,13.60
2022-12-24T21:30:30.380Z,13.70
2022-12-24T21:35:33.277Z,13.50
2022-12-24T21:40:37.764Z,13.60
2022-12-24T21:45:41.887Z,13.50
2022-12-24T21:50:57.033Z,13.50
2022-12-24T21:56:09.511Z,13.50
2022-12-24T22:01:12.934Z,13.50
2022-12-24T22:06:47.999Z,13.50
2022-12-24T22:11:54.872Z,13.40
2022-12-24T22:16:58.056Z,13.50
2022-12-24T22:22:00.937Z,13.60
2022-12-24T22:27:05.405Z,13.50
2022-12-24T22:32:08.240Z,13.50
2022-12-24T22:37:11.148Z,13.40
2022-12-24T22:42:15.358Z,13.40
2022-12-24T22:47:18.273Z,13.40
2022-12-24T22:52:21.120Z,13.10
2022-12-24T22:57:25.405Z,13.20
2022-12-24T23:02:29.179Z,13.20
2022-12-24T23:07:32.213Z,13.20
2022-12-24T23:12:54.154Z,13.20
2022-12-24T23:17:57.046Z,13.20
2022-12-24T23:23:00.117Z,13.10
2022-12-24T23:28:05.013Z,13.10
2022-12-24T23:33:07.929Z,13.10
2022-12-24T23:38:10.789Z,13.10
2022-12-24T23:43:15.380Z,13.10
2022-12-24T23:48:19.130Z,13.20
2022-12-24T23:53:22.132Z,13.20
2022-12-24T23:58:26.352Z,13.30
